Time;durP1;ratioP1;P1;durP2;ratioP2;P2;SDS_P1;SDS_P2;PMS_P1;PMS_P2;Temp;Humidity;BMP_temperature;BMP_pressure;BME280_temperature;BME280_humidity;BME280_pressure;Samples;Min_cycle;Max_cycle;Signal;HPM_P1;HPM_P2
2020/12/24 00:01:54;;;;;;;56.42;34.92;;;;;;;;;;5099092;28;20115;-78
2020/12/24 00:04:20;;;;;;;48.33;33.45;;;;;;;;;;5099082;28;20027;-77
2020/12/24 00:06:46;;;;;;;47.25;31.27;;;;;;;;;;5099010;28;20020;-77
2020/12/24 00:09:12;;;;;;;45.85;30.02;;;;;;;;;;5098764;28;20032;-77
2020/12/24 00:11:38;;;;;;;44.83;30.35;;;;;;;;;;5098718;28;20437;-77
2020/12/24 00:14:04;;;;;;;47.08;30.58;;;;;;;;;;5098716;28;20471;-77
2020/12/24 00:16:30;;;;;;;50.95;31.42;;;;;;;;;;5098676;28;20047;-77
2020/12/24 00:18:56;;;;;;;48.72;29.33;;;;;;;;;;5080538;28;20063;-78
2020/12/24 00:21:23;;;;;;;50.10;30.63;;;;;;;;;;5098453;28;20021;-77
2020/12/24 00:23:49;;;;;;;45.25;29.02;;;;;;;;;;5098595;28;20035;-78
2020/12/24 00:26:15;;;;;;;40.95;28.63;;;;;;;;;;5098431;28;20024;-78
2020/12/24 00:28:41;;;;;;;44.40;29.92;;;;;;;;;;5098656;28;20034;-77
2020/12/24 00:31:08;;;;;;;44.03;29.73;;;;;;;;;;5098274;28;20102;-77
2020/12/24 00:33:34;;;;;;;50.20;30.98;;;;;;;;;;5098188;28;20110;-78
2020/12/24 00:36:00;;;;;;;47.85;30.85;;;;;;;;;;5098446;28;20191;-77
2020/12/24 00:38:28;;;;;;;55.78;33.75;;;;;;;;;;5097985;28;20066;-77
2020/12/24 00:40:54;;;;;;;49.55;32.00;;;;;;;;;;5080203;28;20115;-78
2020/12/24 00:43:20;;;;;;;51.78;33.33;;;;;;;;;;5098284;28;20099;-79
2020/12/24 00:45:46;;;;;;;47.60;31.90;;;;;;;;;;5098366;28;20031;-77
2020/12/24 00:48:12;;;;;;;50.45;34.40;;;;;;;;;;5098195;28;20107;-77
2020/12/24 00:50:38;;;;;;;52.47;34.00;;;;;;;;;;5098241;28;20027;-77
2020/12/24 00:53:04;;;;;;;56.85;36.38;;;;;;;;;;5080188;28;20059;-77
2020/12/24 00:55:31;;;;;;;60.88;36.58;;;;;;;;;;5097921;28;20032;-77
2020/12/24 00:57:57;;;;;;;60.17;34.95;;;;;;;;;;5098163;28;20020;-77
2020/12/24 01:00:23;;;;;;;55.85;35.72;;;;;;;;;;5097679;28;20398;-77
2020/12/24 01:02:49;;;;;;;60.97;37.83;;;;;;;;;;5098036;28;20357;-77
2020/12/24 01:05:15;;;;;;;63.28;39.88;;;;;;;;;;5097784;28;20412;-77
2020/12/24 01:07:41;;;;;;;69.22;41.17;;;;;;;;;;5097883;28;20028;-78
2020/12/24 01:10:08;;;;;;;71.63;44.03;;;;;;;;;;5097629;28;20059;-78
2020/12/24 01:12:34;;;;;;;76.03;43.45;;;;;;;;;;5097627;28;20107;-77
2020/12/24 01:15:01;;;;;;;57.33;36.70;;;;;;;;;;5097649;28;20028;-78
2020/12/24 01:17:27;;;;;;;50.67;33.10;;;;;;;;;;5097518;28;20501;-78
2020/12/24 01:19:53;;;;;;;48.50;29.67;;;;;;;;;;5079809;28;20036;-78
2020/12/24 01:22:19;;;;;;;44.75;29.58;;;;;;;;;;5079423;28;20035;-78
2020/12/24 01:24:45;;;;;;;46.65;29.80;;;;;;;;;;5097833;28;20085;-78
2020/12/24 01:27:11;;;;;;;49.75;31.60;;;;;;;;;;5097461;28;20069;-78
2020/12/24 01:29:37;;;;;;;55.78;32.92;;;;;;;;;;5097644;28;20031;-78
2020/12/24 01:32:03;;;;;;;58.72;34.75;;;;;;;;;;5097726;28;20024;-78
2020/12/24 01:34:29;;;;;;;64.47;35.75;;;;;;;;;;5078905;28;20430;-78
2020/12/24 01:37:00;;;;;;;61.78;37.60;;;;;;;;;;5097284;28;20066;-78
2020/12/24 01:39:26;;;;;;;66.63;39.45;;;;;;;;;;5097067;28;20021;-78
2020/12/24 01:41:52;;;;;;;76.45;41.95;;;;;;;;;;5097221;28;20024;-78
2020/12/24 01:44:18;;;;;;;78.35;44.47;;;;;;;;;;5096156;28;20346;-77
2020/12/24 01:46:44;;;;;;;78.15;44.22;;;;;;;;;;5097335;28;20418;-78
2020/12/24 01:49:10;;;;;;;79.22;45.70;;;;;;;;;;5097402;28;20046;-78
2020/12/24 01:51:36;;;;;;;79.35;45.00;;;;;;;;;;5097244;28;20480;-78
2020/12/24 01:54:03;;;;;;;81.60;44.53;;;;;;;;;;5096897;28;20028;-78
2020/12/24 01:56:29;;;;;;;82.82;45.28;;;;;;;;;;5096937;28;20024;-78
2020/12/24 01:58:55;;;;;;;76.85;45.03;;;;;;;;;;5097074;28;20086;-78
2020/12/24 02:01:22;;;;;;;73.13;43.50;;;;;;;;;;5097054;28;20020;-78
2020/12/24 02:03:48;;;;;;;77.28;44.88;;;;;;;;;;5096972;28;20429;-78
2020/12/24 02:06:14;;;;;;;82.00;45.58;;;;;;;;;;5097162;28;20036;-77
2020/12/24 02:08:40;;;;;;;75.85;43.72;;;;;;;;;;5096985;28;20028;-78
2020/12/24 02:11:09;;;;;;;79.65;44.65;;;;;;;;;;5097086;28;20035;-78
2020/12/24 02:13:35;;;;;;;74.93;44.13;;;;;;;;;;5096891;28;20024;-78
2020/12/24 02:16:01;;;;;;;82.15;45.38;;;;;;;;;;5078650;28;20035;-78
2020/12/24 02:18:27;;;;;;;76.03;44.63;;;;;;;;;;5096717;28;20027;-78
2020/12/24 02:20:53;;;;;;;78.53;44.80;;;;;;;;;;5097028;28;20057;-78
2020/12/24 02:23:19;;;;;;;76.15;44.15;;;;;;;;;;5096979;28;20024;-78
2020/12/24 02:25:46;;;;;;;68.30;43.10;;;;;;;;;;5096860;28;20035;-78
2020/12/24 02:28:12;;;;;;;74.20;44.63;;;;;;;;;;5096778;28;20029;-78
2020/12/24 02:30:38;;;;;;;76.93;43.85;;;;;;;;;;5097103;28;20144;-78
2020/12/24 02:33:05;;;;;;;72.13;42.25;;;;;;;;;;5096709;28;20107;-78
2020/12/24 02:35:31;;;;;;;71.70;41.55;;;;;;;;;;5096790;28;20021;-78
2020/12/24 02:37:57;;;;;;;69.45;42.85;;;;;;;;;;5096772;28;20017;-77
2020/12/24 02:40:23;;;;;;;68.47;40.97;;;;;;;;;;5096587;28;20037;-77
2020/12/24 02:42:50;;;;;;;65.38;40.00;;;;;;;;;;5096816;28;20324;-77
2020/12/24 02:45:16;;;;;;;63.42;38.97;;;;;;;;;;5096558;28;20028;-78
2020/12/24 02:47:42;;;;;;;61.97;38.65;;;;;;;;;;5096683;28;20020;-78
2020/12/24 02:50:09;;;;;;;59.78;37.03;;;;;;;;;;5078255;28;20062;-78
2020/12/24 02:52:35;;;;;;;56.10;35.67;;;;;;;;;;5096609;28;20067;-78
2020/12/24 02:55:01;;;;;;;54.92;35.40;;;;;;;;;;5097675;28;20031;-78
2020/12/24 02:57:29;;;;;;;58.50;36.30;;;;;;;;;;5081661;28;20039;-78
2020/12/24 02:59:55;;;;;;;53.88;34.47;;;;;;;;;;5100288;28;20040;-77
2020/12/24 03:02:21;;;;;;;54.92;34.08;;;;;;;;;;5100449;28;20021;-77
2020/12/24 03:04:47;;;;;;;52.90;34.20;;;;;;;;;;5100100;28;20028;-78
2020/12/24 03:07:13;;;;;;;49.63;32.10;;;;;;;;;;5081783;28;20368;-77
2020/12/24 03:09:39;;;;;;;54.78;33.10;;;;;;;;;;5099836;28;20417;-77
2020/12/24 03:12:05;;;;;;;51.45;32.28;;;;;;;;;;5100033;28;20047;-77
2020/12/24 03:14:31;;;;;;;48.92;31.10;;;;;;;;;;5100053;28;20024;-78
2020/12/24 03:16:58;;;;;;;46.55;30.75;;;;;;;;;;5099730;28;20135;-77
2020/12/24 03:19:24;;;;;;;54.72;31.08;;;;;;;;;;5100123;28;20306;-78
2020/12/24 03:21:50;;;;;;;47.63;30.88;;;;;;;;;;5099916;28;20017;-78
2020/12/24 03:24:16;;;;;;;47.60;30.08;;;;;;;;;;5099932;28;20095;-78
2020/12/24 03:26:42;;;;;;;49.08;30.20;;;;;;;;;;5099818;28;20028;-78
2020/12/24 03:29:08;;;;;;;53.85;31.77;;;;;;;;;;5099838;28;20151;-78
2020/12/24 03:31:34;;;;;;;58.17;36.20;;;;;;;;;;5081744;28;20350;-78
2020/12/24 03:34:00;;;;;;;68.70;39.72;;;;;;;;;;5099486;28;20398;-78
2020/12/24 03:36:26;;;;;;;78.13;43.42;;;;;;;;;;5099593;28;20028;-78
2020/12/24 03:38:52;;;;;;;63.58;38.38;;;;;;;;;;5099567;28;20024;-78
2020/12/24 03:41:18;;;;;;;59.08;34.17;;;;;;;;;;5099322;28;20120;-77
2020/12/24 03:43:45;;;;;;;64.93;38.88;;;;;;;;;;5099294;28;20051;-77
2020/12/24 03:46:11;;;;;;;65.25;36.45;;;;;;;;;;5099592;28;20085;-77
2020/12/24 03:48:37;;;;;;;55.30;34.70;;;;;;;;;;5099715;28;20027;-77
2020/12/24 03:51:03;;;;;;;52.97;34.03;;;;;;;;;;5099304;28;20063;-77
2020/12/24 03:53:29;;;;;;;54.90;34.13;;;;;;;;;;5099094;28;20028;-77
2020/12/24 03:55:55;;;;;;;51.05;32.88;;;;;;;;;;5099057;28;20047;-77
2020/12/24 03:58:21;;;;;;;52.45;32.72;;;;;;;;;;5099069;28;20020;-77
2020/12/24 04:00:47;;;;;;;55.08;35.95;;;;;;;;;;5099091;28;20074;-77
2020/12/24 04:03:13;;;;;;;51.10;33.40;;;;;;;;;;5080860;28;20040;-78
2020/12/24 04:05:39;;;;;;;54.15;32.22;;;;;;;;;;5098983;28;20031;-78
2020/12/24 04:08:06;;;;;;;52.45;32.28;;;;;;;;;;5079998;28;20448;-77
2020/12/24 04:10:32;;;;;;;50.80;31.45;;;;;;;;;;5098402;28;20036;-77
2020/12/24 04:12:58;;;;;;;54.45;32.80;;;;;;;;;;5098600;28;20028;-78
2020/12/24 04:15:26;;;;;;;55.38;32.38;;;;;;;;;;5099028;28;20016;-78
2020/12/24 04:17:52;;;;;;;49.72;30.70;;;;;;;;;;5098658;28;20351;-78
2020/12/24 04:20:18;;;;;;;47.33;29.38;;;;;;;;;;5098929;28;20327;-77
2020/12/24 04:22:44;;;;;;;42.67;28.80;;;;;;;;;;5098734;28;20083;-78
2020/12/24 04:25:10;;;;;;;48.95;30.48;;;;;;;;;;5098545;28;20313;-78
2020/12/24 04:27:36;;;;;;;45.33;30.63;;;;;;;;;;5098509;28;20020;-78
2020/12/24 04:30:02;;;;;;;51.35;31.77;;;;;;;;;;5098469;28;20020;-78
2020/12/24 04:32:28;;;;;;;52.17;33.00;;;;;;;;;;5098451;28;20034;-77
2020/12/24 04:34:54;;;;;;;51.30;31.35;;;;;;;;;;5098296;28;20124;-77
2020/12/24 04:37:20;;;;;;;51.63;32.88;;;;;;;;;;5098604;28;20024;-77
2020/12/24 04:39:47;;;;;;;54.55;33.92;;;;;;;;;;5098226;28;20036;-78
2020/12/24 04:42:14;;;;;;;49.95;33.83;;;;;;;;;;5098382;28;20036;-78
2020/12/24 04:44:41;;;;;;;56.88;36.15;;;;;;;;;;5098164;28;20344;-78
2020/12/24 04:47:08;;;;;;;57.20;36.97;;;;;;;;;;5098487;28;20032;-78
2020/12/24 04:49:34;;;;;;;57.90;36.95;;;;;;;;;;5098442;28;20111;-78
2020/12/24 04:52:01;;;;;;;64.53;40.55;;;;;;;;;;5098238;28;20040;-78
2020/12/24 04:54:27;;;;;;;62.67;40.88;;;;;;;;;;5097866;28;20024;-77
2020/12/24 04:56:53;;;;;;;66.82;42.40;;;;;;;;;;5098049;28;20020;-77
2020/12/24 04:59:20;;;;;;;69.90;43.13;;;;;;;;;;5097880;28;20020;-76
2020/12/24 05:01:50;;;;;;;80.53;46.20;;;;;;;;;;5097895;28;20042;-76
2020/12/24 05:04:19;;;;;;;68.13;44.15;;;;;;;;;;5097962;28;20031;-77
2020/12/24 05:06:45;;;;;;;71.03;42.15;;;;;;;;;;5097917;28;20028;-77
2020/12/24 05:09:48;;;;;;;68.10;44.25;;;;;;;;;;5097631;28;20024;-78
2020/12/24 05:12:18;;;;;;;67.90;42.13;;;;;;;;;;5097597;28;20031;-78
2020/12/24 05:14:44;;;;;;;61.03;40.65;;;;;;;;;;5097826;28;20024;-78
2020/12/24 05:17:10;;;;;;;61.17;41.72;;;;;;;;;;5097582;28;20070;-77
2020/12/24 05:19:47;;;;;;;61.78;41.03;;;;;;;;;;5079170;28;20039;-78
2020/12/24 05:22:23;;;;;;;62.55;40.00;;;;;;;;;;5097660;28;20020;-78
2020/12/24 05:24:49;;;;;;;61.55;41.10;;;;;;;;;;5079626;28;20028;-78
2020/12/24 05:27:16;;;;;;;63.67;41.55;;;;;;;;;;5097461;28;20031;-78
2020/12/24 05:29:43;;;;;;;64.47;39.67;;;;;;;;;;5097758;28;20024;-77
2020/12/24 05:32:10;;;;;;;63.85;40.22;;;;;;;;;;5097488;28;20028;-78
2020/12/24 05:34:36;;;;;;;65.20;40.00;;;;;;;;;;5097433;28;20034;-78
2020/12/24 05:37:12;;;;;;;61.30;39.80;;;;;;;;;;5097449;28;20020;-78
2020/12/24 05:39:38;;;;;;;64.65;41.60;;;;;;;;;;5097293;28;20051;-78
2020/12/24 05:42:05;;;;;;;63.60;40.67;;;;;;;;;;5097419;28;20024;-78
2020/12/24 05:44:31;;;;;;;68.50;42.72;;;;;;;;;;5079277;28;20028;-78
2020/12/24 05:46:57;;;;;;;65.53;42.58;;;;;;;;;;5097245;28;20418;-78
2020/12/24 05:49:24;;;;;;;66.00;42.55;;;;;;;;;;5097336;28;20034;-78
2020/12/24 05:51:52;;;;;;;66.53;43.58;;;;;;;;;;5097433;28;20047;-78
2020/12/24 05:54:18;;;;;;;70.32;44.85;;;;;;;;;;5097049;28;20028;-78
2020/12/24 05:56:45;;;;;;;66.25;41.10;;;;;;;;;;5097237;28;20024;-79
2020/12/24 05:59:27;;;;;;;63.22;39.35;;;;;;;;;;5097219;28;20043;-77
2020/12/24 06:01:53;;;;;;;;;;;;;;;;;;5097575;28;20415;-78
2020/12/24 06:04:27;;;;;;;61.13;37.17;;;;;;;;;;5097058;28;19911;-77
2020/12/24 06:06:57;;;;;;;61.47;38.65;;;;;;;;;;5097009;28;20028;-78
2020/12/24 06:09:25;;;;;;;57.15;37.10;;;;;;;;;;5097037;28;20054;-77
2020/12/24 06:11:52;;;;;;;60.78;37.72;;;;;;;;;;5096922;28;20039;-77
2020/12/24 06:14:27;;;;;;;55.45;34.75;;;;;;;;;;5096960;28;20417;-78
2020/12/24 06:16:54;;;;;;;53.50;34.28;;;;;;;;;;5096887;28;20055;-78
2020/12/24 06:19:21;;;;;;;52.03;32.53;;;;;;;;;;5097226;28;20024;-78
2020/12/24 06:21:47;;;;;;;52.30;32.67;;;;;;;;;;5096967;28;20433;-78
2020/12/24 06:24:14;;;;;;;51.85;32.03;;;;;;;;;;5097098;28;20032;-78
2020/12/24 06:26:43;;;;;;;50.97;32.80;;;;;;;;;;5097102;28;20090;-78
2020/12/24 06:29:10;;;;;;;51.63;32.30;;;;;;;;;;5096931;28;20473;-78
2020/12/24 06:31:40;;;;;;;54.13;33.47;;;;;;;;;;5100623;28;20035;-78
2020/12/24 06:34:22;;;;;;;56.17;34.05;;;;;;;;;;5100712;28;20030;-78
2020/12/24 06:36:48;;;;;;;60.00;35.03;;;;;;;;;;5100734;28;20032;-78
2020/12/24 06:39:14;;;;;;;60.65;35.78;;;;;;;;;;5100570;28;20120;-78
2020/12/24 06:41:44;;;;;;;59.92;34.55;;;;;;;;;;5100562;28;20031;-77
2020/12/24 06:44:10;;;;;;;57.05;33.20;;;;;;;;;;5100585;28;20031;-78
2020/12/24 06:46:56;;;;;;;60.67;34.33;;;;;;;;;;5100798;28;20035;-77
2020/12/24 06:49:29;;;;;;;58.08;34.38;;;;;;;;;;5100631;28;20028;-78
2020/12/24 06:51:55;;;;;;;55.33;33.85;;;;;;;;;;5100397;28;20020;-78
2020/12/24 06:54:22;;;;;;;58.72;33.50;;;;;;;;;;5100489;28;20024;-78
2020/12/24 06:56:48;;;;;;;53.15;35.03;;;;;;;;;;5100193;28;20058;-78
2020/12/24 06:59:21;;;;;;;112.55;76.05;;;;;;;;;;5100260;28;20024;-78
2020/12/24 07:02:00;;;;;;;78.25;47.85;;;;;;;;;;5100228;28;20024;-78
2020/12/24 07:04:39;;;;;;;58.38;37.08;;;;;;;;;;5100308;28;20055;-77
2020/12/24 07:07:06;;;;;;;57.83;35.08;;;;;;;;;;5082261;28;20026;-78
2020/12/24 07:09:32;;;;;;;59.15;31.92;;;;;;;;;;5099898;28;20028;-78
2020/12/24 07:11:59;;;;;;;56.03;32.67;;;;;;;;;;5100010;28;20028;-78
2020/12/24 07:14:29;;;;;;;60.85;33.70;;;;;;;;;;5100042;28;20314;-78
2020/12/24 07:16:56;;;;;;;57.65;33.80;;;;;;;;;;5099605;28;20040;-78
2020/12/24 07:19:22;;;;;;;62.22;34.30;;;;;;;;;;5099994;28;20075;-78
2020/12/24 07:21:50;;;;;;;64.30;36.75;;;;;;;;;;5099928;28;20047;-78
2020/12/24 07:24:17;;;;;;;61.38;36.25;;;;;;;;;;5081996;28;20035;-78
2020/12/24 07:26:43;;;;;;;64.72;36.08;;;;;;;;;;5099902;28;20036;-78
2020/12/24 07:29:13;;;;;;;61.13;37.35;;;;;;;;;;5081901;28;20143;-77
2020/12/24 07:31:39;;;;;;;62.05;35.95;;;;;;;;;;5099914;28;20024;-77
2020/12/24 07:34:06;;;;;;;60.90;36.38;;;;;;;;;;5099708;28;20024;-78
2020/12/24 07:36:32;;;;;;;76.15;42.53;;;;;;;;;;5099614;28;20032;-79
2020/12/24 07:38:58;;;;;;;71.70;41.85;;;;;;;;;;5099350;28;20027;-78
2020/12/24 07:41:24;;;;;;;72.03;37.70;;;;;;;;;;5099682;28;20050;-78
2020/12/24 07:43:50;;;;;;;69.40;36.58;;;;;;;;;;5081426;28;20031;-77
2020/12/24 07:46:20;;;;;;;63.13;37.38;;;;;;;;;;5099519;28;20024;-77
2020/12/24 07:48:48;;;;;;;71.88;43.38;;;;;;;;;;5099487;28;20103;-79
2020/12/24 07:51:14;;;;;;;54.67;34.28;;;;;;;;;;5081158;28;20032;-79
2020/12/24 07:53:40;;;;;;;59.47;35.08;;;;;;;;;;5098937;28;20099;-78
2020/12/24 07:56:08;;;;;;;83.90;50.17;;;;;;;;;;5099205;28;20020;-77
2020/12/24 07:58:35;;;;;;;130.48;84.63;;;;;;;;;;5099428;28;20040;-78
2020/12/24 08:01:04;;;;;;;80.20;48.60;;;;;;;;;;5099326;28;20043;-79
2020/12/24 08:03:30;;;;;;;61.03;35.85;;;;;;;;;;5099153;28;20436;-78
2020/12/24 08:06:06;;;;;;;56.80;34.38;;;;;;;;;;5099116;28;20028;-78
2020/12/24 08:08:36;;;;;;;61.63;33.97;;;;;;;;;;5099302;28;20040;-79
2020/12/24 08:11:20;;;;;;;57.55;35.03;;;;;;;;;;5099194;28;20032;-78
2020/12/24 08:13:46;;;;;;;90.97;43.08;;;;;;;;;;5098782;28;20056;-79
2020/12/24 08:16:13;;;;;;;145.60;49.45;;;;;;;;;;5080538;28;20361;-79
2020/12/24 08:18:45;;;;;;;117.20;46.97;;;;;;;;;;5098702;28;20446;-78
2020/12/24 08:21:18;;;;;;;95.72;43.00;;;;;;;;;;5098875;28;20471;-78
2020/12/24 08:23:52;;;;;;;127.72;46.53;;;;;;;;;;5098745;28;20059;-79
2020/12/24 08:26:19;;;;;;;167.15;53.05;;;;;;;;;;5098514;28;20043;-78
2020/12/24 08:28:55;;;;;;;175.98;54.80;;;;;;;;;;5098745;28;20028;-78
2020/12/24 08:31:23;;;;;;;156.48;51.70;;;;;;;;;;5098584;28;20028;-78
2020/12/24 08:33:51;;;;;;;144.43;56.97;;;;;;;;;;5098412;28;20074;-79
2020/12/24 08:36:26;;;;;;;129.15;56.67;;;;;;;;;;5098457;28;20020;-79
2020/12/24 08:39:03;;;;;;;112.30;53.97;;;;;;;;;;5098184;28;20066;-78
2020/12/24 08:41:32;;;;;;;105.63;51.22;;;;;;;;;;5098219;28;20024;-78
2020/12/24 08:44:02;;;;;;;109.57;53.42;;;;;;;;;;5098115;28;20027;-78
2020/12/24 08:46:28;;;;;;;104.60;54.33;;;;;;;;;;5098620;28;20028;-78
2020/12/24 08:48:54;;;;;;;165.65;77.68;;;;;;;;;;5098039;28;20024;-78
2020/12/24 08:51:20;;;;;;;157.13;65.78;;;;;;;;;;5098080;28;20035;-78
2020/12/24 08:53:47;;;;;;;154.18;56.55;;;;;;;;;;5069332;28;20031;-78
2020/12/24 08:56:14;;;;;;;92.30;45.88;;;;;;;;;;5057687;28;20056;-78
2020/12/24 08:58:50;;;;;;;91.72;47.80;;;;;;;;;;5040117;28;20067;-77
2020/12/24 09:01:17;;;;;;;71.97;40.95;;;;;;;;;;5057861;28;20100;-77
2020/12/24 09:03:43;;;;;;;162.82;50.95;;;;;;;;;;5057793;28;20112;-77
2020/12/24 09:06:10;;;;;;;119.18;46.38;;;;;;;;;;5057798;28;20031;-76
2020/12/24 09:08:36;;;;;;;89.75;41.97;;;;;;;;;;5057579;28;20029;-77
2020/12/24 09:11:02;;;;;;;212.80;61.90;;;;;;;;;;5064114;28;20119;-77
2020/12/24 09:13:30;;;;;;;250.75;69.55;;;;;;;;;;5077343;28;20055;-77
2020/12/24 09:15:56;;;;;;;181.40;67.50;;;;;;;;;;5077240;28;20051;-77
2020/12/24 09:18:22;;;;;;;184.63;61.05;;;;;;;;;;5059362;28;20028;-77
2020/12/24 09:20:48;;;;;;;147.13;53.60;;;;;;;;;;5077266;28;20024;-77
2020/12/24 09:23:15;;;;;;;109.57;44.13;;;;;;;;;;5077362;28;20020;-77
2020/12/24 09:25:45;;;;;;;169.55;52.28;;;;;;;;;;5059585;28;20115;-77
2020/12/24 09:28:27;;;;;;;100.03;41.03;;;;;;;;;;5077158;28;20097;-77
2020/12/24 09:30:53;;;;;;;;;;;;;;;;;;5077841;28;20058;-77
2020/12/24 09:33:19;;;;;;;220.55;55.75;;;;;;;;;;5059411;28;19978;-77
2020/12/24 09:35:45;;;;;;;101.78;42.92;;;;;;;;;;5077315;28;20039;-77
2020/12/24 09:38:11;;;;;;;190.02;48.72;;;;;;;;;;5077149;28;20107;-77
2020/12/24 09:40:40;;;;;;;120.88;40.92;;;;;;;;;;5059191;28;20029;-78
2020/12/24 09:43:07;;;;;;;293.95;60.08;;;;;;;;;;5077113;28;20032;-77
2020/12/24 09:45:33;;;;;;;142.45;62.35;;;;;;;;;;5059126;28;20033;-77
2020/12/24 09:47:59;;;;;;;112.63;47.00;;;;;;;;;;5077085;28;20048;-77
2020/12/24 09:50:25;;;;;;;79.03;32.10;;;;;;;;;;5058796;28;20035;-78
2020/12/24 09:52:51;;;;;;;78.85;31.35;;;;;;;;;;5059336;28;20020;-77
2020/12/24 09:55:17;;;;;;;72.97;30.73;;;;;;;;;;5076925;28;20028;-77
2020/12/24 09:57:43;;;;;;;85.53;32.22;;;;;;;;;;5076816;28;20028;-78
2020/12/24 10:00:11;;;;;;;85.82;32.58;;;;;;;;;;5077078;28;20020;-77
2020/12/24 10:02:37;;;;;;;83.80;35.75;;;;;;;;;;5060194;28;20028;-77
2020/12/24 10:05:04;;;;;;;74.85;30.23;;;;;;;;;;5079878;28;20387;-77
2020/12/24 10:07:31;;;;;;;60.97;30.55;;;;;;;;;;5075883;28;20021;-77
2020/12/24 10:09:57;;;;;;;92.47;42.75;;;;;;;;;;5097845;28;20440;-78
2020/12/24 10:12:24;;;;;;;51.85;28.63;;;;;;;;;;5101101;28;20405;-77
2020/12/24 10:14:50;;;;;;;59.92;28.38;;;;;;;;;;5085312;28;20048;-78
2020/12/24 10:17:16;;;;;;;56.25;26.33;;;;;;;;;;5079904;28;20047;-78
2020/12/24 10:19:43;;;;;;;64.47;30.70;;;;;;;;;;5101291;28;20016;-78
2020/12/24 10:22:13;;;;;;;72.53;35.40;;;;;;;;;;5101208;28;20024;-77
2020/12/24 10:24:40;;;;;;;45.80;28.05;;;;;;;;;;5100928;28;20317;-77
2020/12/24 10:27:06;;;;;;;45.15;26.98;;;;;;;;;;5082986;28;20291;-78
2020/12/24 10:29:33;;;;;;;282.23;60.28;;;;;;;;;;5100798;28;20028;-78
2020/12/24 10:31:59;;;;;;;52.92;26.45;;;;;;;;;;5101499;28;20028;-78
2020/12/24 10:34:25;;;;;;;111.50;34.25;;;;;;;;;;5082237;28;20131;-77
2020/12/24 10:36:51;;;;;;;114.57;37.90;;;;;;;;;;5100762;28;20020;-77
2020/12/24 10:39:17;;;;;;;165.55;33.55;;;;;;;;;;5100907;28;20028;-77
2020/12/24 10:41:48;;;;;;;85.85;31.35;;;;;;;;;;5100528;28;20299;-77
2020/12/24 10:44:14;;;;;;;55.55;28.40;;;;;;;;;;5082469;28;20115;-77
2020/12/24 10:46:40;;;;;;;74.63;35.15;;;;;;;;;;5082488;28;20425;-77
2020/12/24 10:49:06;;;;;;;142.60;43.58;;;;;;;;;;5100674;28;20031;-77
2020/12/24 10:51:32;;;;;;;112.63;35.78;;;;;;;;;;5101518;28;20107;-77
2020/12/24 10:53:59;;;;;;;62.75;27.52;;;;;;;;;;5100563;28;20142;-77
2020/12/24 10:56:25;;;;;;;39.78;22.38;;;;;;;;;;5100357;28;20016;-77
2020/12/24 10:58:51;;;;;;;243.65;218.27;;;;;;;;;;5100250;28;20429;-77
2020/12/24 11:01:18;;;;;;;216.60;193.27;;;;;;;;;;5100469;28;20103;-77
2020/12/24 11:03:45;;;;;;;136.18;106.05;;;;;;;;;;5100372;28;20039;-77
2020/12/24 11:06:18;;;;;;;89.75;63.20;;;;;;;;;;5100159;28;20020;-77
2020/12/24 11:08:44;;;;;;;72.70;49.00;;;;;;;;;;5081829;28;20131;-77
2020/12/24 11:11:10;;;;;;;61.78;38.85;;;;;;;;;;5100056;28;20441;-77
2020/12/24 11:13:37;;;;;;;88.85;53.58;;;;;;;;;;5100268;28;20032;-77
2020/12/24 11:16:03;;;;;;;164.38;104.05;;;;;;;;;;5099465;28;20059;-77
2020/12/24 11:18:29;;;;;;;99.03;62.90;;;;;;;;;;5100095;28;20029;-78
2020/12/24 11:20:56;;;;;;;85.50;48.88;;;;;;;;;;5081996;28;20020;-77
2020/12/24 11:23:22;;;;;;;86.28;45.78;;;;;;;;;;5099906;28;20034;-77
2020/12/24 11:25:48;;;;;;;74.65;46.83;;;;;;;;;;5099653;28;20024;-77
2020/12/24 11:28:14;;;;;;;421.15;85.75;;;;;;;;;;5081592;28;20028;-77
2020/12/24 11:30:40;;;;;;;97.05;49.28;;;;;;;;;;5099810;28;20024;-77
2020/12/24 11:33:06;;;;;;;116.32;56.38;;;;;;;;;;5099786;28;20302;-77
2020/12/24 11:35:32;;;;;;;183.00;69.13;;;;;;;;;;5081373;28;20055;-77
2020/12/24 11:37:58;;;;;;;202.07;81.88;;;;;;;;;;5099611;28;20048;-77
2020/12/24 11:40:24;;;;;;;257.98;229.80;;;;;;;;;;5099747;28;20024;-77
2020/12/24 11:42:51;;;;;;;367.25;152.32;;;;;;;;;;5099534;28;20032;-77
2020/12/24 11:45:17;;;;;;;152.13;61.42;;;;;;;;;;5099138;28;20012;-77
2020/12/24 11:47:43;;;;;;;180.07;55.35;;;;;;;;;;5099451;28;20024;-77
2020/12/24 11:50:09;;;;;;;128.30;45.78;;;;;;;;;;5099497;28;20024;-78
2020/12/24 11:52:35;;;;;;;121.85;51.03;;;;;;;;;;5081286;28;20028;-77
2020/12/24 11:55:01;;;;;;;107.10;42.42;;;;;;;;;;5099052;28;20035;-77
2020/12/24 11:57:28;;;;;;;131.65;43.28;;;;;;;;;;5080656;28;20059;-77
2020/12/24 11:59:54;;;;;;;102.45;46.58;;;;;;;;;;5099109;28;20030;-77
2020/12/24 12:02:20;;;;;;;133.48;45.97;;;;;;;;;;5099118;28;20119;-77
2020/12/24 12:04:46;;;;;;;164.82;45.35;;;;;;;;;;5099062;28;20345;-77
2020/12/24 12:07:12;;;;;;;156.85;42.50;;;;;;;;;;5098940;28;20406;-78
2020/12/24 12:09:38;;;;;;;473.88;76.13;;;;;;;;;;5098837;28;20111;-78
2020/12/24 12:12:04;;;;;;;313.52;61.63;;;;;;;;;;5098843;28;20032;-78
2020/12/24 12:14:30;;;;;;;196.52;42.83;;;;;;;;;;5080288;28;20028;-77
2020/12/24 12:16:56;;;;;;;357.95;64.05;;;;;;;;;;5098828;28;20040;-77
2020/12/24 12:19:22;;;;;;;113.90;37.08;;;;;;;;;;5098769;28;20036;-77
2020/12/24 12:21:49;;;;;;;44.08;27.63;;;;;;;;;;5080825;28;20035;-77
2020/12/24 12:24:15;;;;;;;34.90;19.75;;;;;;;;;;5098772;28;20047;-77
2020/12/24 12:26:41;;;;;;;30.23;17.55;;;;;;;;;;5098396;28;20051;-77
2020/12/24 12:29:09;;;;;;;30.70;17.65;;;;;;;;;;5097850;28;20432;-77
2020/12/24 12:31:35;;;;;;;26.90;15.15;;;;;;;;;;5098591;28;20126;-77
2020/12/24 12:34:02;;;;;;;23.13;14.82;;;;;;;;;;5098518;28;20026;-77
2020/12/24 12:36:28;;;;;;;24.63;14.98;;;;;;;;;;5098337;28;20098;-77
2020/12/24 12:38:54;;;;;;;31.50;18.52;;;;;;;;;;5080522;28;20039;-77
2020/12/24 12:41:21;;;;;;;31.13;18.80;;;;;;;;;;5098250;28;20028;-77
2020/12/24 12:43:47;;;;;;;34.53;18.85;;;;;;;;;;5098772;28;20023;-76
2020/12/24 12:46:17;;;;;;;38.67;17.23;;;;;;;;;;5098701;28;20069;-76
2020/12/24 12:48:43;;;;;;;44.40;25.17;;;;;;;;;;5078390;28;20066;-77
2020/12/24 12:51:10;;;;;;;69.38;38.35;;;;;;;;;;5089545;28;20024;-77
2020/12/24 12:53:36;;;;;;;82.47;43.25;;;;;;;;;;5080082;28;20032;-77
2020/12/24 12:56:02;;;;;;;95.60;48.58;;;;;;;;;;5098124;28;20031;-77
2020/12/24 12:58:28;;;;;;;59.30;31.73;;;;;;;;;;5098160;28;20035;-77
2020/12/24 13:00:54;;;;;;;71.18;38.10;;;;;;;;;;5098117;28;20089;-77
2020/12/24 13:03:22;;;;;;;85.80;42.30;;;;;;;;;;5098068;28;20032;-77
2020/12/24 13:05:48;;;;;;;190.63;70.47;;;;;;;;;;5098293;28;20035;-77
2020/12/24 13:08:14;;;;;;;260.00;91.57;;;;;;;;;;5097962;28;20060;-77
2020/12/24 13:10:40;;;;;;;160.57;67.82;;;;;;;;;;5097694;28;20085;-76
2020/12/24 13:13:06;;;;;;;160.50;67.63;;;;;;;;;;5097710;28;20032;-77
2020/12/24 13:15:32;;;;;;;92.65;45.83;;;;;;;;;;5079804;28;20352;-77
2020/12/24 13:17:59;;;;;;;59.83;34.88;;;;;;;;;;5097569;28;20062;-77
2020/12/24 13:20:25;;;;;;;42.55;23.02;;;;;;;;;;5097629;28;20452;-77
2020/12/24 13:22:51;;;;;;;49.45;25.08;;;;;;;;;;5097583;28;20016;-77
2020/12/24 13:25:17;;;;;;;56.65;16.80;;;;;;;;;;5097539;28;20028;-77
2020/12/24 13:27:43;;;;;;;66.90;22.50;;;;;;;;;;5097469;28;20024;-77
2020/12/24 13:30:09;;;;;;;43.13;19.13;;;;;;;;;;5097605;28;20031;-77
2020/12/24 13:32:35;;;;;;;50.20;23.05;;;;;;;;;;5097662;28;20471;-77
2020/12/24 13:35:01;;;;;;;39.08;21.40;;;;;;;;;;5097334;28;20409;-77
2020/12/24 13:37:27;;;;;;;46.65;25.73;;;;;;;;;;5097422;28;20044;-77
2020/12/24 13:39:53;;;;;;;47.97;25.00;;;;;;;;;;5097186;28;20023;-77
2020/12/24 13:42:22;;;;;;;57.58;24.90;;;;;;;;;;5097211;28;20024;-77
2020/12/24 13:44:48;;;;;;;93.25;46.35;;;;;;;;;;5097152;28;20032;-78
2020/12/24 13:47:14;;;;;;;99.95;45.50;;;;;;;;;;5079000;28;20079;-77
2020/12/24 13:49:40;;;;;;;95.15;48.15;;;;;;;;;;5097390;28;20024;-77
2020/12/24 13:52:06;;;;;;;66.55;33.80;;;;;;;;;;5097325;28;20111;-77
2020/12/24 13:54:32;;;;;;;63.00;26.88;;;;;;;;;;5097182;28;20110;-77
2020/12/24 13:56:58;;;;;;;164.43;34.65;;;;;;;;;;5097057;28;20032;-77
2020/12/24 13:59:24;;;;;;;159.35;31.30;;;;;;;;;;5097131;28;20115;-78
2020/12/24 14:01:54;;;;;;;131.52;30.67;;;;;;;;;;5096889;28;20426;-77
2020/12/24 14:04:20;;;;;;;237.65;47.17;;;;;;;;;;5097280;28;20066;-77
2020/12/24 14:06:50;;;;;;;85.82;32.33;;;;;;;;;;5097090;28;20024;-77
2020/12/24 14:09:17;;;;;;;230.80;61.53;;;;;;;;;;5079088;28;20035;-78
2020/12/24 14:11:43;;;;;;;122.50;71.47;;;;;;;;;;5096964;28;20036;-78
2020/12/24 14:14:09;;;;;;;211.32;51.63;;;;;;;;;;5096965;28;20032;-77